Time;durP1;ratioP1;P1;durP2;ratioP2;P2;SDS_P1;SDS_P2;PMS_P1;PMS_P2;Temp;Humidity;BMP_temperature;BMP_pressure;BME280_temperature;BME280_humidity;BME280_pressure;Samples;Min_cycle;Max_cycle;Signal;HPM_P1;HPM_P2
2022/03/22 00:00:34;;;;;;;43.67;20.75;;;5.00;1.00;;;;;;5065480;28;20093;-85
2022/03/22 00:03:00;;;;;;;43.38;21.00;;;4.90;1.00;;;;;;5058562;28;20469;-86
2022/03/22 00:05:26;;;;;;;43.05;21.75;;;4.80;1.00;;;;;;5066342;28;20025;-84
2022/03/22 00:07:52;;;;;;;44.20;22.55;;;4.80;1.00;;;;;;5076713;28;20035;-86
2022/03/22 00:10:18;;;;;;;41.30;20.73;;;5.00;1.00;;;;;;5069191;28;20028;-86
2022/03/22 00:12:44;;;;;;;45.25;21.95;;;4.90;1.00;;;;;;5051815;28;20419;-86
2022/03/22 00:15:10;;;;;;;43.15;20.50;;;4.90;1.00;;;;;;5068891;28;20045;-86
2022/03/22 00:17:37;;;;;;;44.10;22.58;;;4.90;1.00;;;;;;5068401;28;20040;-85
2022/03/22 00:20:05;;;;;;;44.20;20.67;;;5.00;1.00;;;;;;5067225;28;20040;-85
2022/03/22 00:22:31;;;;;;;42.83;21.48;;;5.00;1.00;;;;;;5053553;28;20392;-85
2022/03/22 00:24:56;;;;;;;43.38;20.77;;;4.90;1.00;;;;;;5050960;28;20033;-85
2022/03/22 00:27:22;;;;;;;45.00;21.30;;;4.90;1.00;;;;;;5061516;28;20017;-85
2022/03/22 00:29:48;;;;;;;45.83;22.77;;;4.90;1.00;;;;;;5067251;28;20147;-84
2022/03/22 00:32:14;;;;;;;43.63;20.35;;;4.80;1.00;;;;;;5070132;28;20093;-85
2022/03/22 00:34:46;;;;;;;42.35;20.85;;;4.80;1.00;;;;;;5069000;28;20053;-85
2022/03/22 00:37:14;;;;;;;46.25;21.75;;;4.70;1.00;;;;;;5068124;28;20067;-85
2022/03/22 00:39:41;;;;;;;44.90;21.58;;;4.70;1.00;;;;;;5068506;28;20033;-85
2022/03/22 00:42:06;;;;;;;45.92;21.15;;;4.70;1.00;;;;;;5068650;28;20123;-86
2022/03/22 00:44:32;;;;;;;42.95;21.40;;;4.70;1.00;;;;;;5068493;28;20040;-85
2022/03/22 00:46:59;;;;;;;43.30;22.23;;;4.70;1.00;;;;;;5084550;28;20051;-84
2022/03/22 00:49:25;;;;;;;46.38;22.23;;;4.60;1.00;;;;;;5068014;28;20084;-85
2022/03/22 00:51:50;;;;;;;45.20;21.75;;;4.60;1.00;;;;;;5059538;28;20029;-86
2022/03/22 00:54:16;;;;;;;45.05;22.92;;;4.60;1.00;;;;;;5068272;28;20139;-83
2022/03/22 00:56:42;;;;;;;50.30;22.60;;;4.60;2.40;;;;;;5068526;28;20025;-84
2022/03/22 01:01:52;;;;;;;46.83;22.25;;;4.60;4.80;;;;;;5068827;28;20104;-85
2022/03/22 01:04:17;;;;;;;45.35;21.63;;;4.60;9.20;;;;;;5068836;28;20024;-84
2022/03/22 01:06:44;;;;;;;44.97;22.58;;;4.70;4.90;;;;;;5068906;28;20013;-86
2022/03/22 01:09:11;;;;;;;46.20;22.17;;;4.70;2.00;;;;;;5068112;28;20022;-85
2022/03/22 01:11:36;;;;;;;44.33;22.25;;;4.70;3.60;;;;;;5069264;28;20040;-85
2022/03/22 01:14:02;;;;;;;53.13;23.25;;;4.60;1.00;;;;;;5069647;28;20029;-84
2022/03/22 01:16:28;;;;;;;44.30;22.23;;;4.70;9.40;;;;;;5060022;28;20106;-84
2022/03/22 01:18:53;;;;;;;45.20;22.42;;;4.60;9.70;;;;;;5068673;28;20434;-84
2022/03/22 01:21:19;;;;;;;47.97;22.60;;;4.70;12.80;;;;;;5069617;28;20029;-85
2022/03/22 01:23:45;;;;;;;46.92;22.98;;;4.60;15.70;;;;;;5067370;28;21141;-85
2022/03/22 01:26:10;;;;;;;48.83;23.38;;;4.60;18.60;;;;;;5068707;28;20032;-85
2022/03/22 01:28:36;;;;;;;48.67;23.30;;;4.50;15.50;;;;;;5068984;28;20052;-85
2022/03/22 01:31:02;;;;;;;45.08;22.45;;;4.40;20.60;;;;;;5070984;28;20041;-85
2022/03/22 01:33:27;;;;;;;45.63;22.50;;;4.40;27.00;;;;;;5069026;28;20033;-85
2022/03/22 01:35:53;;;;;;;46.63;22.85;;;4.40;33.10;;;;;;5067629;28;20166;-84
2022/03/22 01:38:19;;;;;;;47.17;23.23;;;4.40;43.30;;;;;;5067196;28;20032;-85
2022/03/22 01:40:45;;;;;;;43.80;23.45;;;4.40;44.70;;;;;;5071759;28;20021;-82
2022/03/22 01:43:12;;;;;;;45.50;22.10;;;4.40;49.60;;;;;;5093220;28;20025;-83
2022/03/22 01:45:39;;;;;;;51.88;24.30;;;4.50;59.10;;;;;;5069479;28;20036;-83
2022/03/22 01:48:05;;;;;;;49.95;24.20;;;4.50;53.60;;;;;;5076610;28;20047;-85
2022/03/22 01:50:30;;;;;;;44.00;23.02;;;4.40;53.00;;;;;;5067393;28;20032;-85
2022/03/22 01:52:58;;;;;;;48.35;24.02;;;4.40;49.30;;;;;;5069171;28;20029;-85
2022/03/22 01:55:25;;;;;;;43.15;23.27;;;4.40;54.20;;;;;;5067371;28;20108;-85
2022/03/22 01:57:50;;;;;;;49.88;24.55;;;4.30;44.40;;;;;;5066524;28;20025;-86
2022/03/22 02:00:18;;;;;;;46.28;23.23;;;4.20;49.60;;;;;;5067899;28;20044;-86
2022/03/22 02:08:21;;;;;;;44.53;22.27;;;4.20;48.20;;;;;;5068291;28;20040;-85
2022/03/22 02:10:47;;;;;;;46.85;23.63;;;4.20;67.10;;;;;;5066058;28;20370;-85
2022/03/22 02:13:13;;;;;;;49.45;24.88;;;4.20;76.40;;;;;;5068777;22;20143;-82
2022/03/22 02:15:40;;;;;;;45.33;22.85;;;4.20;68.70;;;;;;5048216;28;20511;-80
2022/03/22 02:18:06;;;;;;;45.90;22.83;;;4.10;68.20;;;;;;5034665;28;20071;-80
2022/03/22 02:20:32;;;;;;;51.42;24.25;;;4.10;87.60;;;;;;5046557;28;20026;-80
2022/03/22 02:22:59;;;;;;;50.15;24.10;;;4.10;89.10;;;;;;5047916;28;20045;-80
2022/03/22 02:25:25;;;;;;;49.92;24.27;;;4.10;89.90;;;;;;5047948;28;20084;-80
2022/03/22 02:27:52;;;;;;;51.67;23.83;;;4.20;92.70;;;;;;5046815;28;20033;-80
2022/03/22 02:30:18;;;;;;;50.60;26.05;;;4.20;92.80;;;;;;5046450;28;20024;-80
2022/03/22 02:32:51;;;;;;;46.42;23.40;;;4.20;93.20;;;;;;5041627;28;20543;-80
2022/03/22 02:35:18;;;;;;;49.30;23.48;;;4.20;98.20;;;;;;5046563;28;20033;-80
2022/03/22 02:37:43;;;;;;;44.47;22.73;;;4.20;98.00;;;;;;5045887;28;20093;-80
2022/03/22 02:40:09;;;;;;;46.92;24.10;;;4.00;90.80;;;;;;5030585;28;20056;-80
2022/03/22 02:42:35;;;;;;;45.28;23.38;;;4.00;97.20;;;;;;5040011;28;20033;-80
2022/03/22 02:45:01;;;;;;;47.65;22.95;;;4.10;95.80;;;;;;5045528;28;20080;-81
2022/03/22 02:47:26;;;;;;;45.83;23.35;;;4.00;93.70;;;;;;5048420;28;20108;-81
2022/03/22 02:49:52;;;;;;;48.22;24.50;;;4.00;97.90;;;;;;5033474;28;20025;-80
2022/03/22 02:52:18;;;;;;;46.55;22.88;;;3.90;99.80;;;;;;5047292;28;20132;-80
2022/03/22 02:54:44;;;;;;;44.53;22.73;;;3.90;99.90;;;;;;5047320;28;20025;-80
2022/03/22 02:57:09;;;;;;;41.85;22.65;;;3.90;99.90;;;;;;5046833;28;20085;-80
2022/03/22 02:59:35;;;;;;;49.80;23.42;;;3.90;95.50;;;;;;5046036;28;20048;-80
2022/03/22 03:02:01;;;;;;;46.33;23.85;;;3.90;96.50;;;;;;5047838;28;20599;-80
2022/03/22 03:04:28;;;;;;;49.05;23.27;;;3.90;95.00;;;;;;5045886;28;20036;-81
2022/03/22 03:06:54;;;;;;;53.65;24.75;;;4.00;99.90;;;;;;5031389;28;20094;-81
2022/03/22 03:09:25;;;;;;;50.95;23.90;;;4.00;98.50;;;;;;5045874;28;20034;-81
2022/03/22 03:11:51;;;;;;;49.47;24.02;;;4.00;95.00;;;;;;5041079;28;20168;-81
2022/03/22 03:17:01;;;;;;;50.55;24.10;;;4.00;91.60;;;;;;5045274;28;20037;-80
2022/03/22 03:19:26;;;;;;;46.75;23.67;;;4.00;92.40;;;;;;5036610;28;20026;-81
2022/03/22 03:21:52;;;;;;;49.70;24.58;;;4.20;95.70;;;;;;5040416;28;20028;-80
2022/03/22 03:24:18;;;;;;;49.03;24.15;;;4.20;89.90;;;;;;5040849;28;20026;-81
2022/03/22 03:26:43;;;;;;;46.65;24.35;;;4.10;90.10;;;;;;5040693;28;20047;-80
2022/03/22 03:29:09;;;;;;;55.88;25.17;;;4.20;86.70;;;;;;5047185;28;20017;-81
2022/03/22 03:31:35;;;;;;;48.92;25.77;;;4.20;97.90;;;;;;5045142;28;20052;-81
2022/03/22 03:34:01;;;;;;;52.78;26.50;;;4.30;99.90;;;;;;5032899;28;20071;-80
2022/03/22 03:36:26;;;;;;;46.08;24.23;;;4.30;99.90;;;;;;5037956;28;20504;-81
2022/03/22 03:38:52;;;;;;;50.83;26.30;;;4.20;95.20;;;;;;5036691;28;20060;-80
2022/03/22 03:47:03;;;;;;;52.13;25.65;;;4.20;95.30;;;;;;5039580;28;20105;-81
2022/03/22 03:47:09;;;;;;;51.15;26.65;;;4.20;99.40;;;;;;5043270;28;20033;-81
2022/03/22 03:49:41;;;;;;;57.13;26.95;;;4.20;99.90;;;;;;5041429;28;20030;-81
2022/03/22 03:52:09;;;;;;;50.63;25.77;;;4.20;99.90;;;;;;5051107;28;20033;-81
2022/03/22 03:54:36;;;;;;;51.00;26.10;;;4.10;99.90;;;;;;5048878;28;20034;-80
2022/03/22 03:57:03;;;;;;;59.08;27.13;;;4.20;99.90;;;;;;5034954;28;20034;-80
2022/03/22 03:59:28;;;;;;;51.65;26.27;;;4.10;99.90;;;;;;5050655;28;20041;-81
2022/03/22 04:01:55;;;;;;;55.20;27.80;;;4.10;99.90;;;;;;5052370;28;20051;-81
2022/03/22 04:04:21;;;;;;;52.28;26.50;;;4.10;99.90;;;;;;5049348;28;20036;-81
2022/03/22 04:06:47;;;;;;;49.75;26.60;;;4.10;99.90;;;;;;5042551;28;20110;-81
2022/03/22 04:09:13;;;;;;;52.17;26.00;;;4.10;99.90;;;;;;5035930;28;20057;-81
2022/03/22 04:11:39;;;;;;;55.35;26.75;;;4.00;99.90;;;;;;5046057;28;20033;-80
2022/03/22 04:14:05;;;;;;;53.90;26.90;;;3.90;99.90;;;;;;5039517;28;20611;-81
2022/03/22 04:16:31;;;;;;;53.72;26.85;;;4.00;99.90;;;;;;5051092;28;20026;-80
2022/03/22 04:18:57;;;;;;;58.05;27.08;;;3.90;99.90;;;;;;5049521;28;20030;-80
2022/03/22 04:21:23;;;;;;;50.92;26.92;;;4.00;99.90;;;;;;5042048;28;20029;-81
2022/03/22 04:23:48;;;;;;;52.90;25.77;;;3.90;99.90;;;;;;5045096;28;20025;-81
2022/03/22 04:26:14;;;;;;;50.22;25.15;;;3.80;99.90;;;;;;5036110;28;20080;-81
2022/03/22 04:34:08;;;;;;;53.97;27.73;;;3.90;99.90;;;;;;5052012;28;20016;-81
2022/03/22 04:36:35;;;;;;;59.00;27.90;;;3.80;99.90;;;;;;5051521;28;20025;-81
2022/03/22 04:39:01;;;;;;;53.60;26.42;;;3.80;99.90;;;;;;5049564;28;20026;-81
2022/03/22 04:41:26;;;;;;;54.63;25.88;;;3.70;99.90;;;;;;5043610;28;20032;-80
2022/03/22 04:43:52;;;;;;;53.38;26.15;;;3.70;99.90;;;;;;5046286;28;20021;-81
2022/03/22 04:46:18;;;;;;;58.67;26.08;;;3.60;99.90;;;;;;5042020;28;20037;-81
2022/03/22 04:48:45;;;;;;;51.67;25.95;;;3.50;99.90;;;;;;5040066;28;20029;-81
2022/03/22 04:56:43;;;;;;;51.10;25.42;;;3.60;99.90;;;;;;5042100;28;20542;-80
2022/03/22 04:59:12;;;;;;;53.85;25.40;;;3.50;99.90;;;;;;5026513;28;20374;-80
2022/03/22 05:01:38;;;;;;;47.65;24.52;;;3.50;99.90;;;;;;5045528;28;20029;-80
2022/03/22 05:04:03;;;;;;;48.60;24.35;;;3.40;99.90;;;;;;5045460;28;20036;-81
2022/03/22 05:06:30;;;;;;;56.38;26.10;;;3.30;99.90;;;;;;5040392;28;20057;-80
2022/03/22 05:08:56;;;;;;;49.65;26.05;;;3.40;99.90;;;;;;5031714;28;20489;-80
2022/03/22 05:11:22;;;;;;;52.78;25.00;;;3.40;99.90;;;;;;5031416;28;20079;-80
2022/03/22 05:13:47;;;;;;;49.28;24.50;;;3.40;99.90;;;;;;5051210;28;20041;-81
2022/03/22 05:16:14;;;;;;;51.13;25.50;;;3.30;99.90;;;;;;5050653;28;20072;-81
2022/03/22 05:18:40;;;;;;;53.38;27.20;;;3.40;99.90;;;;;;5051408;28;20105;-81
2022/03/22 05:21:06;;;;;;;47.25;25.50;;;3.40;99.90;;;;;;5050366;28;20037;-81
2022/03/22 05:23:35;;;;;;;54.65;25.27;;;3.40;99.90;;;;;;5050521;28;20029;-80
2022/03/22 05:26:00;;;;;;;57.63;26.65;;;3.50;99.90;;;;;;5049552;28;20444;-81
2022/03/22 05:28:26;;;;;;;54.55;26.05;;;3.50;99.90;;;;;;5038878;28;20056;-81
2022/03/22 05:30:52;;;;;;;54.55;26.75;;;3.50;99.90;;;;;;5047925;28;20041;-81
2022/03/22 05:33:17;;;;;;;51.15;25.85;;;3.40;99.90;;;;;;5029214;28;20049;-81
2022/03/22 05:35:43;;;;;;;55.30;26.25;;;3.40;99.90;;;;;;5038640;28;20095;-81
2022/03/22 05:38:09;;;;;;;53.78;26.42;;;3.50;99.90;;;;;;5043922;28;20022;-80
2022/03/22 05:40:34;;;;;;;55.80;25.88;;;3.50;99.90;;;;;;5038587;28;20030;-80
2022/03/22 05:43:00;;;;;;;54.65;26.85;;;3.50;99.90;;;;;;5021058;28;20088;-79
2022/03/22 05:45:28;;;;;;;53.33;25.88;;;3.60;99.90;;;;;;5037447;28;20357;-81
2022/03/22 05:47:54;;;;;;;55.33;26.92;;;3.60;99.90;;;;;;5022544;28;20029;-81
2022/03/22 05:50:20;;;;;;;49.33;24.67;;;3.70;99.90;;;;;;5033974;28;20029;-79
2022/03/22 05:52:47;;;;;;;52.80;27.00;;;3.70;99.90;;;;;;5036169;28;20034;-80
2022/03/22 05:55:13;;;;;;;58.38;28.10;;;3.60;99.90;;;;;;5033062;28;20497;-81
2022/03/22 05:57:39;;;;;;;58.38;28.90;;;3.70;99.90;;;;;;5036770;28;20021;-80
2022/03/22 06:00:06;;;;;;;54.72;26.30;;;3.90;99.90;;;;;;5041931;28;20075;-81
2022/03/22 06:02:31;;;;;;;54.92;26.60;;;3.90;99.90;;;;;;5039605;28;20391;-81
2022/03/22 06:04:57;;;;;;;52.38;25.70;;;4.00;99.90;;;;;;5034868;28;20022;-81
2022/03/22 06:07:22;;;;;;;52.58;26.63;;;4.00;99.90;;;;;;5034307;28;20381;-80
2022/03/22 06:09:48;;;;;;;55.63;27.25;;;4.10;99.90;;;;;;5032594;28;20029;-81
2022/03/22 06:12:16;;;;;;;45.70;23.85;;;4.20;99.90;;;;;;5031933;28;20029;-80
2022/03/22 06:14:42;;;;;;;51.72;27.17;;;4.40;99.90;;;;;;5032137;28;20057;-81
2022/03/22 06:17:07;;;;;;;62.80;29.08;;;4.50;99.90;;;;;;5034102;28;20029;-81
2022/03/22 06:19:33;;;;;;;52.88;26.05;;;4.70;99.90;;;;;;5033403;28;20021;-81
2022/03/22 06:21:58;;;;;;;58.15;29.75;;;4.90;86.40;;;;;;5027880;28;20029;-80
2022/03/22 06:24:24;;;;;;;61.28;28.83;;;5.10;69.80;;;;;;5036687;28;20021;-81
2022/03/22 06:26:49;;;;;;;52.30;26.48;;;5.20;60.00;;;;;;5032259;28;20085;-81
2022/03/22 06:29:15;;;;;;;52.08;25.95;;;5.50;21.70;;;;;;5028430;28;20065;-81
2022/03/22 06:31:40;;;;;;;56.63;28.27;;;5.70;1.00;;;;;;5037028;28;20210;-81
2022/03/22 06:34:06;;;;;;;54.80;27.48;;;5.80;1.00;;;;;;5028875;28;20029;-81
2022/03/22 06:36:31;;;;;;;56.05;27.48;;;6.00;1.00;;;;;;5028678;28;20472;-80
2022/03/22 06:38:57;;;;;;;52.22;26.83;;;6.00;1.00;;;;;;5036949;28;20120;-81
2022/03/22 06:41:23;;;;;;;46.70;23.77;;;6.20;1.00;;;;;;5018182;28;20033;-80
2022/03/22 06:43:48;;;;;;;45.33;25.45;;;6.30;1.00;;;;;;5036437;28;20421;-80
2022/03/22 06:46:14;;;;;;;55.38;26.23;;;6.20;1.00;;;;;;5029478;28;20022;-80
2022/03/22 06:48:39;;;;;;;50.03;26.25;;;6.20;1.00;;;;;;5035667;28;20030;-81
2022/03/22 06:51:05;;;;;;;48.70;26.67;;;6.50;1.00;;;;;;5031944;28;20025;-81
2022/03/22 06:53:30;;;;;;;53.85;27.00;;;6.60;1.00;;;;;;5032804;28;20409;-80
2022/03/22 06:55:57;;;;;;;54.95;27.55;;;6.70;1.00;;;;;;5033320;28;20104;-80
2022/03/22 06:58:24;;;;;;;53.13;27.77;;;6.90;1.00;;;;;;5037292;28;20025;-80
2022/03/22 07:00:51;;;;;;;49.83;26.60;;;7.10;1.00;;;;;;5032030;28;20036;-81
2022/03/22 07:03:17;;;;;;;54.53;29.45;;;7.30;1.00;;;;;;5038482;28;20033;-80
2022/03/22 07:05:46;;;;;;;53.45;27.08;;;7.30;1.00;;;;;;5035057;28;20025;-81
2022/03/22 07:08:13;;;;;;;56.38;25.10;;;7.40;1.00;;;;;;5028548;28;20036;-81
2022/03/22 07:10:38;;;;;;;47.42;25.00;;;7.50;1.00;;;;;;5033398;28;20021;-81
2022/03/22 07:13:08;;;;;;;47.50;25.90;;;7.90;1.00;;;;;;5031024;28;20033;-81
2022/03/22 07:15:35;;;;;;;55.40;27.50;;;8.70;1.00;;;;;;5029780;28;20037;-81
2022/03/22 07:18:06;;;;;;;53.15;26.60;;;10.90;99.90;;;;;;5042640;28;20024;-81
2022/03/22 07:20:32;;;;;;;48.72;26.88;;;13.20;99.90;;;;;;5043391;28;20040;-81
2022/03/22 07:22:59;;;;;;;58.13;27.35;;;14.90;99.90;;;;;;5036610;28;20032;-81
2022/03/22 07:25:25;;;;;;;47.35;26.55;;;16.00;99.90;;;;;;5045808;28;20025;-81
2022/03/22 07:27:51;;;;;;;49.08;25.40;;;15.30;99.90;;;;;;5044020;28;20032;-81
2022/03/22 07:30:16;;;;;;;45.45;25.33;;;13.00;99.90;;;;;;5034593;28;20093;-81
2022/03/22 07:32:43;;;;;;;47.70;27.42;;;11.90;99.90;;;;;;5034380;28;20085;-81
2022/03/22 07:35:10;;;;;;;46.65;26.25;;;12.50;99.90;;;;;;5042405;28;20033;-81
2022/03/22 07:37:36;;;;;;;49.35;28.20;;;12.30;99.90;;;;;;5032430;28;20116;-81
2022/03/22 07:40:08;;;;;;;47.75;26.48;;;14.30;99.90;;;;;;5031103;28;20036;-81
2022/03/22 07:42:34;;;;;;;50.08;28.40;;;16.70;99.90;;;;;;5031191;28;20040;-81
2022/03/22 07:45:05;;;;;;;45.72;24.88;;;17.30;99.90;;;;;;5038676;28;20389;-82
2022/03/22 07:47:33;;;;;;;51.65;28.27;;;16.40;99.90;;;;;;5037867;28;20480;-81
2022/03/22 07:52:58;;;;;;;50.42;27.55;;;14.70;99.90;;;;;;5039520;28;20103;-81
2022/03/22 07:55:24;;;;;;;49.97;26.20;;;14.30;99.90;;;;;;5041599;28;20093;-81
2022/03/22 07:57:50;;;;;;;47.53;27.33;;;14.40;99.90;;;;;;5040930;28;20045;-82
2022/03/22 08:00:18;;;;;;;46.75;27.30;;;13.70;99.90;;;;;;5041739;28;20037;-81
2022/03/22 08:02:55;;;;;;;47.03;28.17;;;12.90;99.90;;;;;;5044322;28;20052;-82
2022/03/22 08:05:22;;;;;;;49.38;28.00;;;12.80;99.90;;;;;;5050736;28;20029;-81
2022/03/22 08:07:47;;;;;;;47.97;28.02;;;12.80;99.90;;;;;;5035481;28;20064;-81
2022/03/22 08:10:13;;;;;;;50.60;29.90;;;12.40;99.90;;;;;;5034732;28;20029;-81
2022/03/22 08:12:39;;;;;;;50.80;28.42;;;13.20;99.90;;;;;;5044641;28;20509;-81
2022/03/22 08:15:05;;;;;;;48.92;30.00;;;13.60;99.90;;;;;;5037161;28;20053;-82
2022/03/22 08:17:31;;;;;;;52.38;29.95;;;13.30;99.90;;;;;;5042336;28;20064;-81
2022/03/22 08:19:57;;;;;;;48.75;30.05;;;13.70;99.90;;;;;;5042266;28;20396;-81
2022/03/22 08:22:23;;;;;;;49.53;28.73;;;13.60;99.90;;;;;;5042070;28;20041;-81
2022/03/22 08:24:49;;;;;;;49.22;29.38;;;14.20;99.90;;;;;;5030642;28;20279;-81
2022/03/22 08:27:15;;;;;;;56.17;29.30;;;14.40;99.90;;;;;;5036253;28;20564;-81
2022/03/22 08:29:40;;;;;;;48.80;29.00;;;15.00;99.90;;;;;;5025621;28;20061;-82
2022/03/22 08:32:06;;;;;;;51.65;29.42;;;16.20;99.90;;;;;;5025966;28;20037;-81
2022/03/22 08:34:31;;;;;;;50.47;30.00;;;17.70;99.90;;;;;;5034128;28;20104;-82
2022/03/22 08:36:57;;;;;;;47.95;29.92;;;18.50;99.90;;;;;;5023086;28;20053;-82
2022/03/22 08:39:22;;;;;;;51.38;30.88;;;18.20;99.90;;;;;;5032110;28;20033;-81
2022/03/22 08:41:48;;;;;;;48.50;29.15;;;18.30;99.90;;;;;;5034724;28;20041;-81
2022/03/22 08:44:14;;;;;;;51.35;31.83;;;20.10;99.90;;;;;;5029637;28;20029;-82
2022/03/22 08:46:39;;;;;;;51.60;31.17;;;20.20;99.90;;;;;;5034340;28;20022;-82
2022/03/22 08:49:05;;;;;;;50.90;31.52;;;20.90;99.90;;;;;;5033597;28;20052;-82
2022/03/22 08:51:31;;;;;;;50.25;30.20;;;19.40;99.90;;;;;;5032027;28;20033;-82
2022/03/22 08:53:56;;;;;;;50.00;29.58;;;22.60;99.90;;;;;;5031783;28;20080;-82
2022/03/22 08:56:25;;;;;;;51.65;29.95;;;25.40;99.90;;;;;;5033291;28;20096;-82
2022/03/22 08:58:53;;;;;;;48.00;29.27;;;24.60;99.90;;;;;;5033307;28;20025;-81
2022/03/22 09:01:27;;;;;;;49.72;31.23;;;27.30;99.90;;;;;;5032492;28;20447;-82
2022/03/22 09:06:38;;;;;;;48.38;29.33;;;26.90;99.90;;;;;;5032081;28;20060;-79
2022/03/22 09:09:09;;;;;;;47.75;30.38;;;27.00;99.90;;;;;;5027026;28;20028;-81
2022/03/22 09:11:37;;;;;;;52.42;31.45;;;28.90;99.90;;;;;;5034400;28;20029;-82
2022/03/22 09:14:03;;;;;;;51.22;31.90;;;28.30;99.90;;;;;;5026778;28;20052;-82
2022/03/22 09:16:28;;;;;;;50.33;30.77;;;26.50;99.90;;;;;;5030008;28;20108;-82
2022/03/22 09:18:54;;;;;;;45.28;30.55;;;27.80;99.90;;;;;;5028563;28;20025;-82
2022/03/22 09:21:20;;;;;;;45.00;29.73;;;29.30;99.90;;;;;;5035889;28;20047;-81
2022/03/22 09:23:46;;;;;;;41.42;28.65;;;30.70;99.90;;;;;;5033423;28;20014;-82
2022/03/22 09:26:11;;;;;;;49.83;31.60;;;30.70;99.90;;;;;;5036610;28;20032;-81
2022/03/22 09:28:38;;;;;;;45.50;29.13;;;29.40;99.90;;;;;;5027150;28;20328;-82
2022/03/22 09:31:04;;;;;;;43.53;27.90;;;29.80;99.90;;;;;;5034658;28;20029;-82
2022/03/22 09:33:30;;;;;;;44.80;29.65;;;30.30;99.90;;;;;;5029793;28;20013;-82
2022/03/22 09:35:57;;;;;;;42.03;30.35;;;31.70;99.90;;;;;;5035668;28;20032;-82
2022/03/22 09:38:24;;;;;;;46.63;30.95;;;32.60;99.90;;;;;;5035450;28;20025;-81
2022/03/22 09:40:52;;;;;;;42.83;29.25;;;30.90;99.90;;;;;;5021119;28;20062;-82
2022/03/22 09:43:19;;;;;;;46.40;31.55;;;30.90;99.90;;;;;;5034913;28;20082;-81
2022/03/22 09:45:47;;;;;;;44.47;30.13;;;31.00;99.90;;;;;;5039175;28;20128;-82
2022/03/22 09:48:12;;;;;;;44.08;30.17;;;30.40;99.90;;;;;;5039556;28;20052;-82
2022/03/22 09:53:22;;;;;;;43.85;30.88;;;31.90;99.90;;;;;;5040434;28;20056;-82
2022/03/22 09:55:48;;;;;;;45.20;32.10;;;31.50;99.90;;;;;;5041780;28;20025;-82
2022/03/22 09:58:13;;;;;;;40.80;30.10;;;31.60;99.90;;;;;;5041127;28;20378;-82
2022/03/22 10:00:39;;;;;;;44.90;31.55;;;30.40;99.90;;;;;;5043039;28;20372;-82
2022/03/22 10:03:05;;;;;;;44.63;31.17;;;31.60;99.90;;;;;;5042068;28;20030;-82
2022/03/22 10:05:31;;;;;;;43.67;30.98;;;29.60;99.90;;;;;;5033273;28;20168;-82
2022/03/22 10:07:58;;;;;;;45.58;31.90;;;26.60;99.90;;;;;;5039487;28;20025;-82
2022/03/22 10:10:24;;;;;;;44.22;31.40;;;25.80;99.90;;;;;;5037541;28;20055;-82
2022/03/22 10:12:57;;;;;;;45.15;28.52;;;27.00;99.90;;;;;;5038883;28;20468;-82
2022/03/22 10:15:29;;;;;;;46.65;30.20;;;27.40;99.90;;;;;;5037216;28;20167;-82
2022/03/22 10:18:06;;;;;;;43.83;28.40;;;26.40;99.90;;;;;;5038506;28;20036;-82
2022/03/22 10:20:34;;;;;;;45.85;31.17;;;25.90;99.90;;;;;;5039099;28;20091;-82
2022/03/22 10:23:03;;;;;;;44.10;31.83;;;27.60;99.90;;;;;;5038729;28;20044;-82
2022/03/22 10:25:31;;;;;;;43.07;29.20;;;27.20;99.90;;;;;;5040756;28;20573;-82
2022/03/22 10:27:58;;;;;;;45.22;31.85;;;28.00;99.90;;;;;;5030640;28;20277;-83
2022/03/22 10:30:24;;;;;;;45.60;30.85;;;28.40;99.90;;;;;;5038575;28;20033;-83
2022/03/22 10:32:53;;;;;;;40.88;30.23;;;30.50;99.90;;;;;;5042788;28;20052;-82
2022/03/22 10:35:23;;;;;;;41.00;30.48;;;29.00;99.90;;;;;;5039711;28;20113;-83
2022/03/22 10:38:15;;;;;;;;;;;27.90;99.90;;;;;;5037916;28;20025;-83
2022/03/22 10:40:44;;;;;;;44.53;30.58;;;26.90;99.90;;;;;;5031781;28;19960;-82
2022/03/22 10:43:11;;;;;;;44.35;30.88;;;28.00;99.90;;;;;;5039409;28;20021;-82
2022/03/22 10:45:56;;;;;;;41.97;29.10;;;24.60;99.90;;;;;;5033323;28;20068;-83
2022/03/22 10:48:26;;;;;;;43.92;30.85;;;24.40;99.90;;;;;;5040430;28;20025;-82
2022/03/22 10:50:53;;;;;;;47.85;30.95;;;24.80;99.90;;;;;;5034028;28;20037;-83
2022/03/22 10:53:21;;;;;;;41.28;28.77;;;22.30;99.90;;;;;;5032709;28;20401;-83
2022/03/22 10:55:48;;;;;;;43.28;30.35;;;22.00;99.90;;;;;;5040853;28;20052;-83
2022/03/22 10:58:18;;;;;;;42.58;29.05;;;21.30;99.90;;;;;;5033842;28;20029;-83
2022/03/22 11:00:45;;;;;;;44.42;29.25;;;21.90;99.90;;;;;;5043439;28;20041;-83
2022/03/22 11:03:14;;;;;;;42.53;29.75;;;20.70;99.90;;;;;;5035075;28;20037;-83
2022/03/22 11:05:50;;;;;;;43.08;30.17;;;20.20;99.90;;;;;;5043078;28;20017;-83
2022/03/22 11:08:21;;;;;;;44.95;31.10;;;20.40;99.90;;;;;;5040643;28;20026;-82
2022/03/22 11:10:48;;;;;;;43.45;27.95;;;20.00;99.90;;;;;;5034008;28;20037;-82
2022/03/22 11:13:14;;;;;;;43.72;30.48;;;19.90;99.90;;;;;;5034807;28;20085;-83
2022/03/22 11:15:44;;;;;;;42.78;28.85;;;19.40;99.90;;;;;;5043129;28;20029;-82
2022/03/22 11:18:10;;;;;;;;;;;19.80;99.90;;;;;;5045233;28;20074;-82
2022/03/22 11:20:35;;;;;;;39.83;28.75;;;19.70;99.90;;;;;;5043991;28;19913;-82
2022/03/22 11:23:01;;;;;;;41.30;29.67;;;19.50;99.90;;;;;;5037118;28;20067;-82
2022/03/22 11:25:35;;;;;;;43.67;29.60;;;19.10;99.90;;;;;;5037272;28;20026;-83
2022/03/22 11:28:06;;;;;;;47.05;29.17;;;19.00;99.90;;;;;;5038156;28;20025;-83
2022/03/22 11:30:33;;;;;;;43.08;28.48;;;19.00;99.90;;;;;;5035973;28;20410;-83
2022/03/22 11:35:52;;;;;;;43.05;27.73;;;19.40;99.90;;;;;;5045288;28;20098;-84
2022/03/22 11:38:43;;;;;;;38.78;24.92;;;19.40;99.90;;;;;;5043137;28;20030;-83
2022/03/22 11:44:35;;;;;;;39.13;26.52;;;19.10;99.90;;;;;;5038926;28;20570;-83
2022/03/22 11:47:14;;;;;;;42.03;27.73;;;19.90;99.90;;;;;;5044536;28;20030;-83
2022/03/22 11:49:55;;;;;;;36.90;26.00;;;20.70;99.90;;;;;;5045219;28;20059;-83
2022/03/22 11:52:25;;;;;;;40.40;26.50;;;20.10;99.90;;;;;;5038104;28;20022;-83
2022/03/22 11:55:06;;;;;;;38.33;27.35;;;20.00;99.90;;;;;;5043987;28;20029;-83
2022/03/22 11:57:47;;;;;;;38.22;26.13;;;20.00;99.90;;;;;;5045433;28;20025;-83
2022/03/22 12:00:15;;;;;;;44.22;27.02;;;20.10;99.90;;;;;;5044107;28;20028;-83
2022/03/22 12:02:44;;;;;;;43.35;28.00;;;20.40;99.90;;;;;;5046121;28;20034;-83
2022/03/22 12:05:10;;;;;;;35.55;24.00;;;20.00;99.90;;;;;;5051546;28;20017;-83
2022/03/22 12:07:37;;;;;;;36.90;26.05;;;19.90;99.90;;;;;;5050724;28;20060;-83
2022/03/22 12:10:11;;;;;;;36.83;25.10;;;19.50;99.90;;;;;;5041546;28;20033;-83
2022/03/22 12:12:37;;;;;;;34.33;22.45;;;19.80;99.90;;;;;;5051754;28;20040;-83
2022/03/22 12:15:08;;;;;;;34.25;22.30;;;20.70;99.90;;;;;;5052062;28;20117;-83
2022/03/22 12:17:34;;;;;;;39.67;24.80;;;20.80;99.90;;;;;;5046874;28;20068;-83
2022/03/22 12:20:03;;;;;;;35.92;23.77;;;19.90;99.90;;;;;;5053321;28;20029;-83
2022/03/22 12:22:31;;;;;;;36.83;24.73;;;20.80;99.90;;;;;;5045391;28;20646;-83
2022/03/22 12:24:59;;;;;;;38.28;26.55;;;20.50;99.90;;;;;;5053919;28;20029;-83
2022/03/22 12:27:25;;;;;;;38.28;24.45;;;20.00;99.90;;;;;;5045245;28;20025;-82
2022/03/22 12:29:54;;;;;;;37.03;24.20;;;20.50;99.90;;;;;;5045749;28;20017;-83
2022/03/22 12:32:21;;;;;;;37.15;24.63;;;21.30;99.90;;;;;;5050848;28;20038;-83
2022/03/22 12:34:48;;;;;;;38.00;25.95;;;20.50;99.90;;;;;;5042440;28;20026;-83
2022/03/22 12:37:17;;;;;;;36.53;23.08;;;20.40;99.90;;;;;;5050692;28;20026;-83
2022/03/22 12:39:44;;;;;;;39.58;25.73;;;21.00;99.90;;;;;;5053994;28;20019;-84
2022/03/22 12:42:12;;;;;;;36.63;23.95;;;21.20;99.90;;;;;;5052416;28;20120;-82
2022/03/22 12:44:38;;;;;;;34.97;24.25;;;21.30;99.90;;;;;;5053086;28;20037;-83
2022/03/22 12:47:05;;;;;;;35.42;24.30;;;21.90;99.90;;;;;;5053020;28;20349;-83
2022/03/22 12:49:39;;;;;;;35.78;24.00;;;21.50;99.90;;;;;;5053303;28;20033;-82
2022/03/22 12:52:06;;;;;;;37.58;23.98;;;20.50;99.90;;;;;;5042789;28;20056;-83
2022/03/22 12:54:33;;;;;;;36.60;24.15;;;20.90;99.90;;;;;;5053146;28;20026;-83
2022/03/22 12:57:01;;;;;;;35.65;24.13;;;21.70;99.90;;;;;;5054891;28;20024;-83
2022/03/22 12:59:27;;;;;;;33.08;23.10;;;20.70;99.90;;;;;;5054000;28;20036;-83
2022/03/22 13:01:57;;;;;;;35.20;24.83;;;21.20;99.90;;;;;;5049637;28;20022;-84
2022/03/22 13:04:26;;;;;;;35.70;23.70;;;21.10;99.90;;;;;;5055878;28;20017;-83
2022/03/22 13:07:00;;;;;;;34.30;23.30;;;21.40;99.90;;;;;;5047755;28;20010;-83
2022/03/22 13:12:14;;;;;;;35.13;23.48;;;21.30;99.90;;;;;;5056156;28;20036;-84
2022/03/22 13:17:46;;;;;;;35.28;21.90;;;21.50;99.90;;;;;;5053687;28;20135;-84
2022/03/22 13:20:17;;;;;;;37.35;24.35;;;21.50;99.90;;;;;;5051455;28;20028;-84